Time;durP1;ratioP1;P1;durP2;ratioP2;P2;SDS_P1;SDS_P2;PMS_P1;PMS_P2;Temp;Humidity;BMP_temperature;BMP_pressure;BME280_temperature;BME280_humidity;BME280_pressure;Samples;Min_cycle;Max_cycle;Signal;HPM_P1;HPM_P2
2022/07/09 00:01:13;;;;;;;11.27;6.53;;;16.50;99.90;;;;;;4920831;28;88945;-31
2022/07/09 00:03:39;;;;;;;7.18;5.75;;;16.50;99.90;;;;;;4958065;23;90502;-32
2022/07/09 00:06:04;;;;;;;15.95;6.53;;;16.40;99.90;;;;;;4921578;28;89418;-29
2022/07/09 00:08:30;;;;;;;6.72;6.03;;;16.40;99.90;;;;;;4921750;28;89572;-33
2022/07/09 00:10:56;;;;;;;12.73;7.78;;;16.40;99.90;;;;;;4921491;28;88850;-33
2022/07/09 00:13:21;;;;;;;8.25;6.03;;;16.40;99.90;;;;;;4920686;28;89851;-32
2022/07/09 00:15:47;;;;;;;11.85;6.20;;;16.40;99.90;;;;;;4921413;28;91128;-30
2022/07/09 00:18:13;;;;;;;9.30;6.43;;;16.40;99.90;;;;;;4920882;28;89701;-34
2022/07/09 00:20:38;;;;;;;13.60;7.30;;;16.40;99.90;;;;;;4922196;28;87690;-34
2022/07/09 00:23:04;;;;;;;12.57;7.03;;;16.30;99.90;;;;;;4920788;28;90591;-32
2022/07/09 00:25:30;;;;;;;10.10;6.22;;;16.30;99.90;;;;;;4920761;28;90645;-31
2022/07/09 00:27:55;;;;;;;8.55;5.65;;;16.30;99.90;;;;;;4921329;28;89075;-31
2022/07/09 00:30:21;;;;;;;9.38;6.88;;;16.20;99.90;;;;;;4921404;28;89233;-32
2022/07/09 00:32:46;;;;;;;9.13;6.45;;;16.20;99.90;;;;;;4921062;28;89591;-33
2022/07/09 00:35:12;;;;;;;9.90;7.22;;;16.20;99.90;;;;;;4921011;28;90181;-31
2022/07/09 00:37:38;;;;;;;14.27;7.32;;;16.10;99.90;;;;;;4921325;28;89939;-32
2022/07/09 00:40:04;;;;;;;10.93;5.90;;;16.10;99.90;;;;;;4920595;28;88521;-33
2022/07/09 00:42:29;;;;;;;11.00;6.78;;;16.10;99.90;;;;;;4922414;28;90980;-30
2022/07/09 00:44:55;;;;;;;9.93;7.90;;;16.00;99.90;;;;;;4920674;28;89669;-32
2022/07/09 00:47:21;;;;;;;12.30;8.23;;;16.00;99.90;;;;;;4920355;28;90560;-34
2022/07/09 00:49:46;;;;;;;7.57;6.78;;;16.00;99.90;;;;;;4921201;28;89095;-30
2022/07/09 00:52:14;;;;;;;7.72;6.47;;;16.00;99.90;;;;;;4920752;28;90290;-31
2022/07/09 00:54:41;;;;;;;16.17;8.07;;;15.90;99.90;;;;;;4921104;28;90531;-33
2022/07/09 00:57:09;;;;;;;11.45;7.47;;;15.90;99.90;;;;;;4920812;28;88479;-33
2022/07/09 00:59:35;;;;;;;9.52;7.07;;;15.90;99.90;;;;;;4920691;28;88660;-32
2022/07/09 01:02:01;;;;;;;11.43;7.68;;;15.90;99.90;;;;;;4920739;28;90296;-30
2022/07/09 01:04:27;;;;;;;8.43;6.18;;;15.90;99.90;;;;;;4920680;28;89424;-35
2022/07/09 01:06:53;;;;;;;11.90;8.00;;;15.90;99.90;;;;;;4920654;28;89378;-33
2022/07/09 01:09:18;;;;;;;8.40;6.55;;;15.90;99.90;;;;;;4920169;28;88637;-31
2022/07/09 01:11:45;;;;;;;7.80;6.30;;;15.90;99.90;;;;;;4920517;28;89502;-31
2022/07/09 01:14:11;;;;;;;10.35;6.43;;;16.00;99.90;;;;;;4919694;28;89834;-32
2022/07/09 01:16:37;;;;;;;13.18;6.80;;;16.00;99.90;;;;;;4921234;28;89447;-30
2022/07/09 01:19:03;;;;;;;8.85;6.68;;;16.00;99.90;;;;;;4920610;28;88833;-33
2022/07/09 01:21:29;;;;;;;9.35;6.80;;;16.00;99.90;;;;;;4919908;28;90265;-33
2022/07/09 01:23:56;;;;;;;10.65;6.85;;;16.00;99.90;;;;;;4920451;28;89278;-34
2022/07/09 01:26:23;;;;;;;10.50;6.72;;;15.90;99.90;;;;;;4920135;28;89273;-32
2022/07/09 01:28:49;;;;;;;11.25;6.50;;;15.90;99.90;;;;;;4907318;28;89238;-33
2022/07/09 01:31:15;;;;;;;11.43;7.55;;;15.90;99.90;;;;;;4920357;28;89514;-32
2022/07/09 01:33:41;;;;;;;7.70;7.00;;;15.90;99.90;;;;;;4918617;28;91953;-31
2022/07/09 01:36:10;;;;;;;8.85;6.90;;;15.80;99.90;;;;;;4919923;28;89094;-33
2022/07/09 01:38:35;;;;;;;10.63;7.57;;;15.80;99.90;;;;;;4920923;28;89430;-33
2022/07/09 01:41:01;;;;;;;10.77;6.50;;;15.80;99.90;;;;;;4923739;28;90557;-31
2022/07/09 01:43:27;;;;;;;9.93;7.40;;;15.80;99.90;;;;;;4922918;28;89632;-32
2022/07/09 01:45:52;;;;;;;11.48;7.07;;;15.80;99.90;;;;;;4924130;28;89562;-30
2022/07/09 01:48:18;;;;;;;11.30;8.35;;;15.80;99.90;;;;;;4923464;28;89844;-30
2022/07/09 01:50:44;;;;;;;12.57;7.03;;;15.80;99.90;;;;;;4924116;28;90742;-31
2022/07/09 01:53:10;;;;;;;8.07;6.18;;;15.80;99.90;;;;;;4922845;28;89967;-31
2022/07/09 01:55:35;;;;;;;10.48;7.68;;;15.90;99.90;;;;;;4923491;28;89747;-31
2022/07/09 01:58:01;;;;;;;11.07;7.63;;;15.90;99.90;;;;;;4923418;28;88348;-32
2022/07/09 02:00:30;;;;;;;15.50;7.55;;;15.90;99.90;;;;;;4923142;28;90859;-32
2022/07/09 02:02:56;;;;;;;10.65;7.20;;;15.90;99.90;;;;;;4922943;28;91281;-31
2022/07/09 02:05:22;;;;;;;13.70;8.65;;;15.90;99.90;;;;;;4923197;28;90451;-33
2022/07/09 02:07:47;;;;;;;8.90;6.88;;;15.90;99.90;;;;;;4923828;28;88750;-31
2022/07/09 02:10:13;;;;;;;8.10;7.30;;;15.90;99.90;;;;;;4923041;28;90224;-31
2022/07/09 02:12:39;;;;;;;13.45;6.97;;;15.90;99.90;;;;;;4923029;28;91691;-33
2022/07/09 02:15:06;;;;;;;13.80;7.95;;;15.90;99.90;;;;;;4922937;28;89625;-30
2022/07/09 02:17:32;;;;;;;12.15;7.88;;;16.00;99.90;;;;;;4924344;28;89021;-31
2022/07/09 02:19:58;;;;;;;11.55;8.45;;;16.00;99.90;;;;;;4923091;28;89307;-33
2022/07/09 02:22:24;;;;;;;10.88;9.32;;;16.00;99.90;;;;;;4923073;28;89590;-30
2022/07/09 02:24:49;;;;;;;15.77;8.98;;;16.00;99.90;;;;;;4923382;28;91373;-31
2022/07/09 02:27:15;;;;;;;13.07;8.90;;;16.00;99.90;;;;;;4922771;28;89360;-31
2022/07/09 02:29:41;;;;;;;14.90;9.73;;;16.00;99.90;;;;;;4923191;28;90231;-34
2022/07/09 02:32:07;;;;;;;14.90;8.88;;;16.00;99.90;;;;;;4922563;28;90324;-32
2022/07/09 02:34:33;;;;;;;16.70;9.20;;;16.00;99.90;;;;;;4922827;28;90458;-34
2022/07/09 02:36:58;;;;;;;11.77;9.63;;;16.00;99.90;;;;;;4923244;28;89414;-32
2022/07/09 02:39:24;;;;;;;10.05;8.82;;;16.00;99.90;;;;;;4922743;28;90334;-34
2022/07/09 02:41:50;;;;;;;16.80;9.65;;;16.00;99.90;;;;;;4923146;28;89824;-29
2022/07/09 02:44:15;;;;;;;14.93;10.27;;;15.90;99.90;;;;;;4922948;28;89258;-32
2022/07/09 02:46:41;;;;;;;11.20;9.45;;;15.90;99.90;;;;;;4922672;28;89286;-34
2022/07/09 02:49:07;;;;;;;12.60;8.80;;;15.90;99.90;;;;;;4922443;28;90582;-32
2022/07/09 02:51:32;;;;;;;14.40;10.15;;;15.90;99.90;;;;;;4922052;28;90650;-32
2022/07/09 02:53:58;;;;;;;10.40;8.95;;;15.90;99.90;;;;;;4922168;28;90261;-33
2022/07/09 02:56:23;;;;;;;13.90;9.63;;;15.90;99.90;;;;;;4922593;28;88295;-30
2022/07/09 02:58:49;;;;;;;20.05;11.48;;;15.90;99.90;;;;;;4922694;28;90182;-31
2022/07/09 03:01:14;;;;;;;17.05;9.70;;;15.90;99.90;;;;;;4921843;28;89548;-33
2022/07/09 03:03:40;;;;;;;13.98;9.98;;;15.90;99.90;;;;;;4922143;28;90236;-33
2022/07/09 03:06:08;;;;;;;10.75;9.60;;;15.90;99.90;;;;;;4921863;28;89377;-31
2022/07/09 03:08:33;;;;;;;13.93;11.32;;;15.90;99.90;;;;;;4922124;28;90029;-29
2022/07/09 03:10:59;;;;;;;14.23;9.55;;;15.90;99.90;;;;;;4921356;28;89229;-31
2022/07/09 03:13:25;;;;;;;15.57;9.57;;;15.90;99.90;;;;;;4922410;28;90273;-31
2022/07/09 03:15:51;;;;;;;10.07;7.30;;;15.90;99.90;;;;;;4922724;28;90451;-33
2022/07/09 03:18:16;;;;;;;11.50;9.35;;;15.90;99.90;;;;;;4922710;28;90127;-33
2022/07/09 03:20:42;;;;;;;18.33;9.98;;;15.90;99.90;;;;;;4921901;28;88125;-33
2022/07/09 03:23:08;;;;;;;13.18;9.52;;;15.90;99.90;;;;;;4921212;28;90020;-31
2022/07/09 03:25:33;;;;;;;20.67;8.75;;;15.90;99.90;;;;;;4922267;28;89140;-29
2022/07/09 03:27:59;;;;;;;11.82;9.38;;;15.90;99.90;;;;;;4922509;28;90280;-33
2022/07/09 03:30:25;;;;;;;14.02;8.60;;;15.90;99.90;;;;;;4922692;28;89910;-31
2022/07/09 03:32:51;;;;;;;12.73;8.45;;;15.90;99.90;;;;;;4922077;28;89438;-33
2022/07/09 03:35:16;;;;;;;11.65;9.48;;;16.00;99.90;;;;;;4922913;28;89866;-30
2022/07/09 03:37:42;;;;;;;12.20;8.40;;;16.00;99.90;;;;;;4921825;28;90574;-31
2022/07/09 03:40:08;;;;;;;10.20;8.05;;;16.00;99.90;;;;;;4921516;28;90825;-32
2022/07/09 03:42:34;;;;;;;15.85;8.23;;;16.00;99.90;;;;;;4922173;28;90452;-33
2022/07/09 03:44:59;;;;;;;8.48;7.57;;;16.00;99.90;;;;;;4920320;28;88806;-32
2022/07/09 03:47:25;;;;;;;11.05;8.27;;;16.00;99.90;;;;;;4921788;28;91461;-31
2022/07/09 03:49:51;;;;;;;11.30;9.38;;;15.90;99.90;;;;;;4921611;28;90181;-32
2022/07/09 03:52:17;;;;;;;17.95;8.85;;;15.90;99.90;;;;;;4922429;28;89003;-33
2022/07/09 03:54:43;;;;;;;16.42;9.07;;;15.90;99.90;;;;;;4922329;28;88717;-33
2022/07/09 03:57:09;;;;;;;13.45;8.55;;;15.90;99.90;;;;;;4921437;28;90088;-34
2022/07/09 03:59:35;;;;;;;8.40;7.55;;;15.90;99.90;;;;;;4921390;28;91048;-33
2022/07/09 04:02:01;;;;;;;10.68;8.02;;;15.80;99.90;;;;;;4920461;28;89050;-29
2022/07/09 04:04:26;;;;;;;10.98;8.75;;;15.80;99.90;;;;;;4921198;28;90250;-32
2022/07/09 04:06:52;;;;;;;11.30;8.18;;;15.80;99.90;;;;;;4921662;28;90663;-32
2022/07/09 04:09:17;;;;;;;8.10;6.82;;;15.80;99.90;;;;;;4921778;28;90374;-30
2022/07/09 04:11:43;;;;;;;11.40;8.63;;;15.80;99.90;;;;;;4921057;28;89286;-32
2022/07/09 04:14:08;;;;;;;10.07;9.07;;;15.80;99.90;;;;;;4921096;28;89265;-30
2022/07/09 04:16:34;;;;;;;10.00;8.27;;;15.80;99.90;;;;;;4921544;28;90042;-30
2022/07/09 04:19:00;;;;;;;8.88;7.20;;;15.80;99.90;;;;;;4920880;28;89830;-32
2022/07/09 04:21:25;;;;;;;13.93;7.75;;;15.80;99.90;;;;;;4921640;28;89136;-31
2022/07/09 04:23:51;;;;;;;10.70;8.50;;;15.90;99.90;;;;;;4920891;28;87726;-32
2022/07/09 04:26:20;;;;;;;12.52;8.82;;;15.90;99.90;;;;;;4921266;28;90421;-30
2022/07/09 04:28:46;;;;;;;8.77;7.82;;;15.90;99.90;;;;;;4920913;28;90297;-30
2022/07/09 04:31:13;;;;;;;12.50;8.18;;;15.90;99.90;;;;;;4921527;28;90903;-30
2022/07/09 04:33:38;;;;;;;16.40;9.65;;;15.90;99.90;;;;;;4920869;28;89718;-30
2022/07/09 04:36:04;;;;;;;13.27;9.23;;;15.90;99.90;;;;;;4920602;28;90138;-30
2022/07/09 04:38:30;;;;;;;10.35;8.02;;;15.90;99.90;;;;;;4921079;28;90298;-32
2022/07/09 04:40:56;;;;;;;12.02;7.53;;;16.00;99.90;;;;;;4921427;28;89984;-33
2022/07/09 04:43:22;;;;;;;8.75;7.63;;;16.00;99.90;;;;;;4920782;28;89182;-31
2022/07/09 04:45:47;;;;;;;14.55;9.38;;;16.00;99.90;;;;;;4920971;28;90542;-34
2022/07/09 04:48:13;;;;;;;12.07;8.27;;;16.00;99.90;;;;;;4920896;28;89931;-30
2022/07/09 04:50:39;;;;;;;13.52;8.07;;;16.00;99.90;;;;;;4920626;28;89259;-31
2022/07/09 04:53:04;;;;;;;13.65;8.65;;;16.00;99.90;;;;;;4920406;28;90712;-34
2022/07/09 04:55:30;;;;;;;13.95;9.45;;;16.10;99.90;;;;;;4920621;28;90265;-34
2022/07/09 04:57:56;;;;;;;13.30;9.50;;;16.10;99.90;;;;;;4920441;28;89750;-31
2022/07/09 05:00:22;;;;;;;10.95;8.30;;;16.20;99.90;;;;;;4920407;28;89651;-31
2022/07/09 05:02:47;;;;;;;11.55;8.95;;;16.20;99.90;;;;;;4920269;28;88163;-30
2022/07/09 05:05:13;;;;;;;17.73;10.70;;;16.20;99.90;;;;;;4920982;28;90220;-30
2022/07/09 05:07:40;;;;;;;12.45;9.82;;;16.20;99.90;;;;;;4920601;28;89990;-31
2022/07/09 05:10:06;;;;;;;13.05;9.13;;;16.30;99.90;;;;;;4920002;28;89592;-31
2022/07/09 05:12:32;;;;;;;16.63;9.43;;;16.20;99.90;;;;;;4921211;28;89769;-31
2022/07/09 05:14:57;;;;;;;12.50;8.48;;;16.40;99.90;;;;;;4919094;28;90193;-35
2022/07/09 05:17:23;;;;;;;17.50;8.68;;;16.40;99.90;;;;;;4920579;28;90041;-32
2022/07/09 05:19:49;;;;;;;10.73;9.20;;;16.50;99.90;;;;;;4920635;28;91030;-32
2022/07/09 05:22:15;;;;;;;9.65;8.65;;;16.50;99.90;;;;;;4920112;28;87865;-30
2022/07/09 05:24:41;;;;;;;11.98;8.73;;;16.60;99.90;;;;;;4920283;28;90206;-30
2022/07/09 05:27:09;;;;;;;10.73;7.55;;;16.60;99.90;;;;;;4920545;28;90152;-32
2022/07/09 05:29:35;;;;;;;11.65;8.25;;;16.60;99.90;;;;;;4921362;28;89562;-32
2022/07/09 05:32:00;;;;;;;10.15;7.30;;;16.60;99.90;;;;;;4920861;28;89415;-31
2022/07/09 05:34:26;;;;;;;11.27;8.73;;;16.70;99.90;;;;;;4919460;28;90295;-30
2022/07/09 05:36:52;;;;;;;11.15;9.65;;;16.70;99.90;;;;;;4920658;28;90121;-33
2022/07/09 05:39:18;;;;;;;10.52;9.25;;;16.70;99.90;;;;;;4919759;28;89098;-33
2022/07/09 05:41:43;;;;;;;10.50;8.57;;;16.80;99.90;;;;;;4920330;28;89281;-31
2022/07/09 05:44:09;;;;;;;12.13;8.25;;;16.80;99.90;;;;;;4920104;28;90522;-30
2022/07/09 05:46:35;;;;;;;10.90;8.68;;;16.90;99.90;;;;;;4919816;28;89692;-32
2022/07/09 05:49:01;;;;;;;12.50;8.75;;;17.00;99.90;;;;;;4920070;28;89492;-33
2022/07/09 05:51:27;;;;;;;10.85;7.97;;;17.10;99.90;;;;;;4920197;28;87817;-31
2022/07/09 05:53:53;;;;;;;12.73;7.30;;;17.10;99.90;;;;;;4920344;28;90314;-32
2022/07/09 05:56:18;;;;;;;10.38;7.43;;;17.20;99.90;;;;;;4920508;28;89720;-30
2022/07/09 05:58:44;;;;;;;9.77;6.75;;;17.20;99.90;;;;;;4919632;28;89213;-31
2022/07/09 06:01:11;;;;;;;8.02;7.22;;;17.20;99.90;;;;;;4920461;28;87615;-32
2022/07/09 06:03:37;;;;;;;8.40;7.50;;;17.30;99.90;;;;;;4918813;28;90639;-31
2022/07/09 06:06:02;;;;;;;8.95;6.70;;;17.40;99.90;;;;;;4919432;28;90329;-33
2022/07/09 06:08:28;;;;;;;14.30;7.35;;;17.50;99.90;;;;;;4919668;28;90676;-31
2022/07/09 06:10:54;;;;;;;12.90;7.03;;;17.50;99.90;;;;;;4919676;28;90070;-31
2022/07/09 06:13:19;;;;;;;10.70;6.10;;;17.60;99.90;;;;;;4919742;28;91429;-31
2022/07/09 06:15:45;;;;;;;9.65;6.35;;;17.60;99.90;;;;;;4919648;28;91653;-31
2022/07/09 06:18:11;;;;;;;9.10;6.10;;;17.70;99.90;;;;;;4919560;28;89667;-34
2022/07/09 06:20:37;;;;;;;8.30;6.43;;;17.70;99.90;;;;;;4919907;28;88752;-32
2022/07/09 06:23:02;;;;;;;9.57;5.97;;;17.80;99.90;;;;;;4919135;28;90378;-33
2022/07/09 06:25:28;;;;;;;9.18;5.07;;;17.80;99.90;;;;;;4920826;28;89253;-32
2022/07/09 06:27:54;;;;;;;7.75;5.40;;;17.80;99.90;;;;;;4923007;28;89572;-30
2022/07/09 06:30:20;;;;;;;7.15;5.35;;;17.90;99.90;;;;;;4922568;28;90258;-29
2022/07/09 06:32:45;;;;;;;6.82;4.85;;;18.00;99.90;;;;;;4923033;28;89473;-32
2022/07/09 06:35:11;;;;;;;6.65;4.90;;;18.00;99.90;;;;;;4922491;28;89738;-31
2022/07/09 06:37:36;;;;;;;6.32;5.00;;;18.00;99.90;;;;;;4923618;28;89182;-30
2022/07/09 06:40:03;;;;;;;10.48;4.97;;;18.00;99.90;;;;;;4922966;28;88269;-33
2022/07/09 06:42:29;;;;;;;8.93;4.45;;;18.00;99.90;;;;;;4922770;28;90302;-32
2022/07/09 06:44:54;;;;;;;6.85;4.60;;;18.00;99.90;;;;;;4909107;28;89828;-34
2022/07/09 06:47:20;;;;;;;7.80;4.68;;;18.00;99.90;;;;;;4922457;28;89705;-33
2022/07/09 06:49:46;;;;;;;6.68;4.18;;;18.10;99.90;;;;;;4920869;28;89337;-30
2022/07/09 06:52:11;;;;;;;11.85;4.93;;;18.10;99.90;;;;;;4921561;28;90175;-31
2022/07/09 06:54:37;;;;;;;5.10;4.35;;;18.10;99.90;;;;;;4921855;28;90001;-31
2022/07/09 06:57:03;;;;;;;9.82;4.38;;;18.10;99.90;;;;;;4922109;28;90256;-31
2022/07/09 06:59:29;;;;;;;6.53;4.78;;;18.10;99.90;;;;;;4922560;28;89776;-31
2022/07/09 07:01:55;;;;;;;6.82;4.32;;;18.10;99.90;;;;;;4921649;28;91764;-31
2022/07/09 07:04:21;;;;;;;5.53;5.03;;;18.20;99.90;;;;;;4920913;28;89699;-30
2022/07/09 07:06:48;;;;;;;5.78;4.60;;;18.20;99.90;;;;;;4921860;28;89154;-33
2022/07/09 07:09:18;;;;;;;7.45;5.15;;;18.30;99.90;;;;;;4922276;28;90107;-31
2022/07/09 07:11:48;;;;;;;4.10;3.75;;;18.30;99.90;;;;;;4922456;28;89239;-31
2022/07/09 07:14:15;;;;;;;3.80;3.50;;;18.40;99.90;;;;;;4917633;28;89781;-30
2022/07/09 07:16:41;;;;;;;5.82;4.55;;;18.40;99.90;;;;;;4922140;28;88638;-33
2022/07/09 07:19:07;;;;;;;5.38;3.78;;;18.40;99.90;;;;;;4921463;28;89047;-31
2022/07/09 07:21:32;;;;;;;4.32;3.63;;;18.40;99.90;;;;;;4921769;28;90603;-33
2022/07/09 07:23:59;;;;;;;5.15;4.20;;;18.40;99.90;;;;;;4918770;28;89813;-33
2022/07/09 07:26:25;;;;;;;7.88;5.90;;;18.40;99.90;;;;;;4921517;28;90210;-31
2022/07/09 07:28:51;;;;;;;6.70;4.40;;;18.50;99.90;;;;;;4921143;28;88830;-33
2022/07/09 07:31:16;;;;;;;6.03;4.03;;;18.50;99.90;;;;;;4920922;28;90451;-32
2022/07/09 07:33:43;;;;;;;10.02;4.18;;;18.50;99.90;;;;;;4920867;28;90148;-33
2022/07/09 07:36:08;;;;;;;7.72;4.47;;;18.50;99.90;;;;;;4920153;28;90113;-31
2022/07/09 07:38:34;;;;;;;4.90;3.63;;;18.40;99.90;;;;;;4922705;28;90035;-32
2022/07/09 07:41:00;;;;;;;5.50;2.90;;;18.40;99.90;;;;;;4921324;28;90198;-31
2022/07/09 07:43:26;;;;;;;6.03;3.55;;;18.40;99.90;;;;;;4919585;28;90631;-33
2022/07/09 07:45:51;;;;;;;5.00;2.97;;;18.50;99.90;;;;;;4920297;28;90550;-31
2022/07/09 07:48:17;;;;;;;4.13;3.30;;;18.50;99.90;;;;;;4921575;28;88287;-32
2022/07/09 07:50:42;;;;;;;4.40;2.95;;;18.50;99.90;;;;;;4922262;28;90861;-32
2022/07/09 07:53:08;;;;;;;3.45;2.80;;;18.50;99.90;;;;;;4921158;28;88732;-32
2022/07/09 07:55:34;;;;;;;5.22;2.88;;;18.50;99.90;;;;;;4921656;28;89822;-30
2022/07/09 07:58:00;;;;;;;3.13;2.72;;;18.60;99.90;;;;;;4918615;28;89221;-32
2022/07/09 08:00:25;;;;;;;4.28;3.13;;;18.60;99.90;;;;;;4917836;28;90479;-32
2022/07/09 08:02:51;;;;;;;6.82;3.03;;;18.70;99.90;;;;;;4881441;28;92031;-32
2022/07/09 08:05:17;;;;;;;7.40;3.72;;;18.80;99.90;;;;;;4915726;28;89455;-30
2022/07/09 08:07:42;;;;;;;5.82;2.78;;;19.00;99.90;;;;;;4919300;28;88924;-32
2022/07/09 08:10:08;;;;;;;3.70;3.35;;;19.00;99.90;;;;;;4918642;28;90364;-33
2022/07/09 08:12:34;;;;;;;3.47;3.15;;;19.10;99.90;;;;;;4906382;28;91129;-31
2022/07/09 08:14:59;;;;;;;6.03;2.90;;;19.10;99.90;;;;;;4918842;28;89437;-32
2022/07/09 08:17:25;;;;;;;4.55;2.85;;;19.10;99.90;;;;;;4919240;28;88649;-33
2022/07/09 08:19:51;;;;;;;4.30;2.55;;;19.20;99.90;;;;;;4919867;28;90404;-33
2022/07/09 08:22:17;;;;;;;2.70;2.45;;;19.40;99.90;;;;;;4917991;28;89994;-33
2022/07/09 08:24:42;;;;;;;4.43;2.83;;;19.90;99.90;;;;;;4919580;28;89668;-34
2022/07/09 08:27:08;;;;;;;3.67;3.22;;;20.30;99.90;;;;;;4918293;28;88534;-33
2022/07/09 08:29:33;;;;;;;4.38;2.58;;;20.60;99.90;;;;;;4917221;28;90316;-35
2022/07/09 08:31:59;;;;;;;5.25;2.78;;;20.90;99.90;;;;;;4917589;28;90403;-32
2022/07/09 08:34:25;;;;;;;3.90;2.50;;;21.00;99.90;;;;;;4917126;28;89289;-33
2022/07/09 08:36:50;;;;;;;3.30;2.80;;;21.10;99.90;;;;;;4929854;28;89109;-35
2022/07/09 08:39:16;;;;;;;4.13;2.72;;;21.20;99.90;;;;;;4937531;28;90457;-31
2022/07/09 08:41:43;;;;;;;2.88;2.00;;;21.10;99.90;;;;;;4920753;28;89466;-34
2022/07/09 08:44:12;;;;;;;6.57;2.70;;;20.90;99.90;;;;;;4918367;28;90506;-32
2022/07/09 08:46:39;;;;;;;2.90;2.55;;;20.90;99.90;;;;;;4919150;28;89857;-30
2022/07/09 08:49:06;;;;;;;2.55;2.35;;;21.10;99.90;;;;;;4918169;28;91004;-32
2022/07/09 08:51:34;;;;;;;2.42;2.22;;;21.20;99.90;;;;;;4918266;28;90080;-32
2022/07/09 08:54:01;;;;;;;4.97;2.58;;;21.20;99.90;;;;;;4918904;28;90165;-31
2022/07/09 08:56:27;;;;;;;3.10;1.90;;;21.30;99.90;;;;;;4918081;28;90024;-32
2022/07/09 08:58:52;;;;;;;2.33;2.00;;;21.30;99.90;;;;;;4918700;28;90265;-33
2022/07/09 09:01:18;;;;;;;2.22;2.03;;;21.30;99.90;;;;;;4918173;28;89606;-32
2022/07/09 09:03:44;;;;;;;3.53;2.10;;;21.50;99.90;;;;;;4918331;28;90259;-30
2022/07/09 09:06:11;;;;;;;2.95;2.10;;;21.90;99.90;;;;;;4918280;28;88240;-31
2022/07/09 09:08:42;;;;;;;2.17;1.92;;;21.80;99.90;;;;;;4918879;28;90100;-31
2022/07/09 09:11:13;;;;;;;2.35;1.80;;;21.70;99.90;;;;;;4918669;28;89664;-31
2022/07/09 09:13:43;;;;;;;1.65;1.50;;;21.70;99.90;;;;;;4918643;28;89546;-33
2022/07/09 09:16:10;;;;;;;3.40;1.75;;;21.80;99.90;;;;;;4918676;28;88313;-32
2022/07/09 09:18:39;;;;;;;2.17;1.65;;;21.80;99.90;;;;;;4918679;28;92080;-32
2022/07/09 09:21:06;;;;;;;2.42;2.20;;;22.10;99.90;;;;;;4918004;28;92070;-32
2022/07/09 09:23:46;;;;;;;2.05;1.85;;;22.30;99.90;;;;;;4918109;28;90632;-34
2022/07/09 09:26:15;;;;;;;2.60;1.63;;;22.50;99.90;;;;;;4905421;28;89705;-33
2022/07/09 09:28:51;;;;;;;5.82;2.78;;;22.60;99.90;;;;;;4917852;28;90317;-33
2022/07/09 09:31:18;;;;;;;4.40;2.35;;;22.60;99.90;;;;;;4905044;28;89674;-32
2022/07/09 09:33:44;;;;;;;1.60;1.50;;;22.40;99.90;;;;;;4917876;28;89074;-31
2022/07/09 09:36:10;;;;;;;4.35;2.22;;;22.20;99.90;;;;;;4917379;28;87915;-32
2022/07/09 09:38:35;;;;;;;3.17;1.88;;;22.20;99.90;;;;;;4917239;28;90699;-32
2022/07/09 09:41:01;;;;;;;2.97;2.20;;;22.40;99.90;;;;;;4917849;28;89696;-31
2022/07/09 09:43:30;;;;;;;3.03;2.40;;;22.70;99.90;;;;;;4918108;28;89484;-33
2022/07/09 09:45:59;;;;;;;3.72;1.58;;;23.00;99.90;;;;;;4917740;28;90468;-34
2022/07/09 09:48:24;;;;;;;4.47;1.33;;;22.90;99.90;;;;;;4918025;28;90604;-33
2022/07/09 09:50:52;;;;;;;1.73;1.60;;;22.70;99.90;;;;;;4917571;28;89936;-31
2022/07/09 09:53:19;;;;;;;5.13;1.70;;;22.50;99.90;;;;;;4917838;28;89471;-31
2022/07/09 09:55:46;;;;;;;1.33;1.23;;;22.50;99.90;;;;;;4917928;28;89215;-31
2022/07/09 09:58:12;;;;;;;3.47;2.03;;;22.60;99.90;;;;;;4918051;28;90339;-31
2022/07/09 10:00:38;;;;;;;2.38;1.80;;;22.60;99.90;;;;;;4921697;28;89532;-31
2022/07/09 10:03:06;;;;;;;3.42;2.00;;;22.40;99.90;;;;;;4921129;28;90144;-34
2022/07/09 10:05:32;;;;;;;1.45;1.35;;;22.30;99.90;;;;;;4921388;28;88535;-33
2022/07/09 10:07:58;;;;;;;1.70;1.60;;;22.10;99.90;;;;;;4920517;28;89105;-33
2022/07/09 10:10:24;;;;;;;3.20;1.70;;;21.90;99.90;;;;;;4920235;28;91391;-35
2022/07/09 10:12:49;;;;;;;2.92;2.00;;;21.80;99.90;;;;;;4921568;28;91663;-32
2022/07/09 10:15:23;;;;;;;3.95;1.83;;;21.70;99.90;;;;;;4920616;28;89096;-31
2022/07/09 10:17:49;;;;;;;5.82;2.55;;;21.90;99.90;;;;;;4936361;28;90272;-32
2022/07/09 10:20:15;;;;;;;2.35;1.60;;;22.10;99.90;;;;;;4934252;28;89660;-32
2022/07/09 10:22:45;;;;;;;3.97;1.90;;;22.30;99.90;;;;;;4940181;28;89483;-31
2022/07/09 10:25:28;;;;;;;2.28;2.10;;;22.50;99.90;;;;;;4940434;28;88035;-32
2022/07/09 10:27:54;;;;;;;3.35;1.75;;;22.70;99.90;;;;;;4939916;28;91356;-31
2022/07/09 10:30:30;;;;;;;4.40;1.80;;;22.70;99.90;;;;;;4939861;28;89482;-32
2022/07/09 10:33:04;;;;;;;1.55;1.45;;;22.70;99.90;;;;;;4939763;28;89769;-31
2022/07/09 10:35:30;;;;;;;1.40;1.30;;;22.60;99.90;;;;;;4939157;28;91002;-33
2022/07/09 10:37:56;;;;;;;1.90;1.10;;;22.50;99.90;;;;;;4940272;28;88856;-33
2022/07/09 10:40:23;;;;;;;2.17;1.48;;;22.30;99.90;;;;;;4932017;28;90091;-34
2022/07/09 10:43:00;;;;;;;1.98;1.42;;;22.30;99.90;;;;;;4920982;28;89770;-33
2022/07/09 10:45:35;;;;;;;2.55;2.13;;;22.50;99.90;;;;;;4908084;28;88928;-32
2022/07/09 10:48:03;;;;;;;2.17;1.88;;;22.70;99.90;;;;;;4930145;28;90149;-31
2022/07/09 10:50:32;;;;;;;3.92;1.85;;;22.90;99.90;;;;;;4939242;28;91874;-32
2022/07/09 10:52:59;;;;;;;3.50;2.15;;;22.60;99.90;;;;;;4939635;28;89525;-36
2022/07/09 10:55:26;;;;;;;7.50;1.40;;;22.30;99.90;;;;;;4939580;28;88657;-33
2022/07/09 10:57:52;;;;;;;3.90;1.77;;;22.00;99.90;;;;;;4934867;28;90465;-30
2022/07/09 11:00:20;;;;;;;3.78;2.55;;;21.90;99.90;;;;;;4930233;28;91285;-34
2022/07/09 11:02:59;;;;;;;4.88;1.60;;;22.20;99.90;;;;;;4919190;28;90350;-32
2022/07/09 11:05:26;;;;;;;4.72;2.30;;;22.40;99.90;;;;;;4920083;28;89229;-35
2022/07/09 11:07:55;;;;;;;2.37;2.17;;;22.60;99.90;;;;;;4919538;28;88704;-34
2022/07/09 11:10:20;;;;;;;3.53;2.05;;;22.80;99.90;;;;;;4920034;28;89361;-31
2022/07/09 11:12:49;;;;;;;2.97;2.67;;;22.90;99.90;;;;;;4917982;28;90011;-33
2022/07/09 11:15:22;;;;;;;2.25;1.45;;;22.80;99.90;;;;;;4919130;28;88543;-32
2022/07/09 11:17:55;;;;;;;2.17;1.98;;;22.70;99.90;;;;;;4918423;28;89010;-32
2022/07/09 11:20:21;;;;;;;1.55;1.45;;;22.60;99.90;;;;;;4919722;28;89878;-33
2022/07/09 11:22:48;;;;;;;3.38;1.77;;;22.60;99.90;;;;;;4919027;28;89345;-34
2022/07/09 11:25:15;;;;;;;2.27;1.60;;;22.50;99.90;;;;;;4919074;28;89952;-31
2022/07/09 11:27:41;;;;;;;1.88;1.63;;;22.60;99.90;;;;;;4919487;28;89246;-32
2022/07/09 11:30:14;;;;;;;2.67;1.98;;;22.50;99.90;;;;;;4919076;28;91948;-31
2022/07/09 11:32:43;;;;;;;2.25;1.58;;;22.70;99.90;;;;;;4919425;28;89303;-31
2022/07/09 11:35:10;;;;;;;4.43;1.60;;;22.70;99.90;;;;;;4919985;28;89275;-34
2022/07/09 11:37:36;;;;;;;5.97;2.30;;;22.80;99.90;;;;;;4919761;28;91125;-33
2022/07/09 11:40:02;;;;;;;5.18;2.55;;;22.70;99.90;;;;;;4918560;28;89964;-31
2022/07/09 11:42:28;;;;;;;3.22;2.47;;;22.50;99.90;;;;;;4920025;28;89456;-31
2022/07/09 11:44:56;;;;;;;3.90;2.20;;;22.20;99.90;;;;;;4919265;28;90438;-32
2022/07/09 11:47:35;;;;;;;2.85;2.42;;;21.90;99.90;;;;;;4918358;28;90389;-31
2022/07/09 11:50:12;;;;;;;4.18;2.65;;;21.90;99.90;;;;;;4918413;28;91129;-30
2022/07/09 11:52:47;;;;;;;10.88;3.40;;;21.80;99.90;;;;;;4919233;28;91684;-34
2022/07/09 11:55:18;;;;;;;4.50;2.33;;;21.70;99.90;;;;;;4919345;28;88088;-31
2022/07/09 11:57:52;;;;;;;4.03;2.00;;;21.60;99.90;;;;;;4919645;28;89941;-34
2022/07/09 12:00:24;;;;;;;5.60;4.45;;;21.60;99.90;;;;;;4918806;28;89517;-33
2022/07/09 12:02:50;;;;;;;7.32;3.38;;;21.70;99.90;;;;;;4935352;28;88944;-32
2022/07/09 12:05:31;;;;;;;8.77;2.70;;;21.70;99.90;;;;;;4958058;23;88893;-34
2022/07/09 12:08:05;;;;;;;6.40;2.17;;;21.80;99.90;;;;;;4919168;28;90839;-32
2022/07/09 12:10:33;;;;;;;4.55;2.70;;;21.90;99.90;;;;;;4919205;28;89611;-33
2022/07/09 12:13:00;;;;;;;5.00;2.30;;;21.90;99.90;;;;;;4919082;28;89269;-32
2022/07/09 12:15:26;;;;;;;2.63;2.22;;;21.80;99.90;;;;;;4918175;28;88948;-34
2022/07/09 12:17:57;;;;;;;3.35;2.40;;;21.70;99.90;;;;;;4918157;28;90888;-35
2022/07/09 12:20:26;;;;;;;8.15;2.20;;;21.70;99.90;;;;;;4918889;28;89415;-34
2022/07/09 12:22:52;;;;;;;5.47;2.20;;;21.80;99.90;;;;;;4918464;28;90231;-35
2022/07/09 12:25:18;;;;;;;6.85;2.28;;;21.70;99.90;;;;;;4918540;28;89269;-32
2022/07/09 12:27:44;;;;;;;2.33;2.13;;;21.60;99.90;;;;;;4918540;28;90401;-33
2022/07/09 12:30:10;;;;;;;4.07;2.38;;;21.70;99.90;;;;;;4918497;28;89966;-34
2022/07/09 12:32:36;;;;;;;5.65;2.13;;;21.70;99.90;;;;;;4918705;28;90172;-31
2022/07/09 12:35:03;;;;;;;1.98;1.80;;;21.70;99.90;;;;;;4918351;28;89452;-34
2022/07/09 12:37:28;;;;;;;2.30;1.77;;;21.60;99.90;;;;;;4918254;28;90619;-32
2022/07/09 12:39:54;;;;;;;6.35;1.50;;;21.70;99.90;;;;;;4917791;28;91301;-32